Time;durP1;ratioP1;P1;durP2;ratioP2;P2;SDS_P1;SDS_P2;PMS_P1;PMS_P2;Temp;Humidity;BMP_temperature;BMP_pressure;BME280_temperature;BME280_humidity;BME280_pressure;Samples;Min_cycle;Max_cycle;Signal;HPM_P1;HPM_P2
2023/10/09 00:01:42;;;;;;;14.15;5.25;;;;;;;13.87;100.00;97405.09;5041963;28;20425;-53
2023/10/09 00:04:10;;;;;;;10.00;4.18;;;;;;;13.85;100.00;97399.91;5042622;28;20215;-51
2023/10/09 00:06:37;;;;;;;12.38;4.10;;;;;;;13.87;100.00;97399.78;5042206;28;20718;-53
2023/10/09 00:09:12;;;;;;;13.18;4.20;;;;;;;13.79;100.00;97411.13;5042627;28;20289;-51
2023/10/09 00:11:44;;;;;;;11.88;4.20;;;;;;;13.72;100.00;97409.19;5043182;28;20191;-53
2023/10/09 00:14:12;;;;;;;8.82;4.20;;;;;;;13.67;100.00;97400.84;5042490;28;20215;-51
2023/10/09 00:16:46;;;;;;;9.83;4.60;;;;;;;13.63;100.00;97402.09;5041969;28;20203;-51
2023/10/09 00:19:19;;;;;;;12.97;4.07;;;;;;;13.60;100.00;97400.56;5041585;28;20209;-52
2023/10/09 00:21:46;;;;;;;10.27;4.17;;;;;;;13.57;100.00;97408.00;5041970;28;20207;-52
2023/10/09 00:24:23;;;;;;;13.00;4.67;;;;;;;13.54;100.00;97401.13;5041984;28;20231;-52
2023/10/09 00:26:50;;;;;;;14.52;4.72;;;;;;;13.50;100.00;97405.03;5041484;28;20235;-52
2023/10/09 00:29:22;;;;;;;12.20;4.57;;;;;;;13.47;100.00;97402.66;5041440;28;20203;-53
2023/10/09 00:31:55;;;;;;;15.73;4.37;;;;;;;13.50;100.00;97405.03;5042004;28;20223;-51
2023/10/09 00:34:26;;;;;;;12.30;4.13;;;;;;;13.46;100.00;97404.47;5040305;28;20218;-50
2023/10/09 00:36:53;;;;;;;16.00;4.70;;;;;;;13.43;100.00;97407.44;5041288;28;20615;-53
2023/10/09 00:39:40;;;;;;;19.13;4.50;;;;;;;13.40;100.00;97396.25;5040933;28;20326;-52
2023/10/09 00:42:07;;;;;;;10.20;4.07;;;;;;;13.41;100.00;97397.94;5041482;28;20195;-52
2023/10/09 00:44:39;;;;;;;11.97;4.30;;;;;;;13.40;100.00;97398.91;5041277;28;20271;-51
2023/10/09 00:47:20;;;;;;;11.18;4.53;;;;;;;13.45;100.00;97402.00;5041305;28;20598;-51
2023/10/09 00:49:49;;;;;;;17.73;4.67;;;;;;;13.45;100.00;97396.69;5040696;28;20207;-52
2023/10/09 00:52:24;;;;;;;11.77;4.23;;;;;;;13.44;100.00;97395.00;5041422;28;20208;-52
2023/10/09 00:54:51;;;;;;;14.98;5.10;;;;;;;13.40;100.00;97394.44;5040688;28;20231;-55
2023/10/09 00:57:24;;;;;;;16.85;4.75;;;;;;;13.37;100.00;97394.72;5041458;28;20211;-52
2023/10/09 00:59:59;;;;;;;14.23;4.70;;;;;;;13.38;100.00;97392.91;5041005;28;20643;-52
2023/10/09 01:02:35;;;;;;;15.13;5.07;;;;;;;13.36;100.00;97389.53;5041513;28;20219;-51
2023/10/09 01:05:18;;;;;;;8.83;4.63;;;;;;;13.36;100.00;97394.84;5040823;28;20203;-50
2023/10/09 01:07:47;;;;;;;10.57;5.30;;;;;;;13.33;100.00;97385.34;5041344;28;20261;-51
2023/10/09 01:10:35;;;;;;;10.10;4.60;;;;;;;13.35;100.00;97390.53;5040840;28;20223;-51
2023/10/09 01:13:01;;;;;;;14.07;5.53;;;;;;;13.32;100.00;97390.84;5040833;28;20282;-51
2023/10/09 01:15:43;;;;;;;8.77;4.70;;;;;;;13.30;100.00;97393.63;5040803;28;20203;-52
2023/10/09 01:18:12;;;;;;;13.80;5.33;;;;;;;13.32;100.00;97375.69;5043247;28;20215;-53
2023/10/09 01:20:45;;;;;;;11.80;4.83;;;;;;;13.29;100.00;97383.97;5044747;28;20203;-53
2023/10/09 01:23:13;;;;;;;12.97;4.70;;;;;;;13.24;100.00;97377.41;5044577;28;20263;-52
2023/10/09 01:25:46;;;;;;;12.97;4.37;;;;;;;13.23;100.00;97373.06;5044621;28;20207;-52
2023/10/09 01:28:15;;;;;;;9.47;4.83;;;;;;;13.27;100.00;97377.13;5045141;28;20196;-52
2023/10/09 01:30:43;;;;;;;12.83;4.90;;;;;;;13.17;100.00;97369.16;5044452;28;20211;-52
2023/10/09 01:33:21;;;;;;;17.47;5.00;;;;;;;13.12;100.00;97378.53;5044921;28;20214;-51
2023/10/09 01:35:50;;;;;;;12.00;4.63;;;;;;;13.10;100.00;97370.72;5045017;28;20697;-52
2023/10/09 01:38:30;;;;;;;10.60;4.27;;;;;;;13.14;100.00;97368.63;5045250;28;20905;-53
2023/10/09 01:41:03;;;;;;;11.33;4.87;;;;;;;13.10;100.00;97364.56;5044443;28;20195;-53
2023/10/09 01:43:32;;;;;;;10.93;4.73;;;;;;;13.09;100.00;97369.03;5045063;28;20520;-54
2023/10/09 01:46:01;;;;;;;12.23;4.60;;;;;;;13.10;100.00;97375.19;5044352;28;20199;-53
2023/10/09 01:48:27;;;;;;;12.13;4.40;;;;;;;13.12;100.00;97365.25;5043716;28;20628;-52
2023/10/09 01:50:54;;;;;;;12.77;4.37;;;;;;;13.09;100.00;97368.16;5044028;28;20281;-52
2023/10/09 01:53:27;;;;;;;12.27;5.27;;;;;;;13.03;100.00;97364.25;5044511;28;20211;-53
2023/10/09 01:55:55;;;;;;;11.37;4.73;;;;;;;13.01;100.00;97371.50;5044327;28;20192;-51
2023/10/09 01:58:24;;;;;;;11.57;3.87;;;;;;;12.97;100.00;97367.44;5043821;28;20222;-52
2023/10/09 02:00:54;;;;;;;9.73;4.27;;;;;;;12.98;100.00;97366.47;5043525;28;20689;-52
2023/10/09 02:03:23;;;;;;;10.13;4.13;;;;;;;12.93;100.00;97369.56;5044117;28;20250;-52
2023/10/09 02:05:50;;;;;;;14.17;4.10;;;;;;;12.96;100.00;97368.47;5043477;28;20632;-51
2023/10/09 02:08:21;;;;;;;9.90;4.00;;;;;;;12.95;100.00;97369.41;5044253;28;20298;-50
2023/10/09 02:10:49;;;;;;;10.07;4.43;;;;;;;12.90;100.00;97363.69;5043353;28;20509;-53
2023/10/09 02:13:18;;;;;;;10.00;4.40;;;;;;;12.85;100.00;97361.47;5043830;28;20282;-52
2023/10/09 02:15:58;;;;;;;12.03;4.10;;;;;;;12.84;100.00;97367.75;5043674;28;20262;-52
2023/10/09 02:18:39;;;;;;;11.40;4.40;;;;;;;12.82;100.00;97367.03;5043818;28;20268;-50
2023/10/09 02:21:13;;;;;;;12.83;4.70;;;;;;;12.80;100.00;97371.66;5043201;28;20203;-52
2023/10/09 02:23:40;;;;;;;11.53;4.30;;;;;;;12.84;100.00;97370.41;5043089;28;20231;-51
2023/10/09 02:26:17;;;;;;;8.70;4.30;;;;;;;12.81;100.00;97365.38;5043525;28;20883;-50
2023/10/09 02:28:44;;;;;;;13.53;4.57;;;;;;;12.81;100.00;97368.03;5043856;28;20191;-51
2023/10/09 02:31:16;;;;;;;11.97;4.40;;;;;;;12.82;100.00;97371.53;5043724;28;20203;-52
2023/10/09 02:33:42;;;;;;;13.20;5.00;;;;;;;12.85;100.00;97364.13;5043899;28;20199;-52
2023/10/09 02:36:11;;;;;;;8.17;3.83;;;;;;;12.83;100.00;97357.25;5044399;28;20200;-51
2023/10/09 02:38:41;;;;;;;10.40;4.10;;;;;;;12.85;100.00;97357.97;5043784;28;20273;-53
2023/10/09 02:41:20;;;;;;;12.57;4.87;;;;;;;12.79;100.00;97351.38;5043419;28;20195;-52
2023/10/09 02:43:47;;;;;;;9.37;4.23;;;;;;;12.82;100.00;97353.75;5043935;28;20499;-52
2023/10/09 02:46:17;;;;;;;12.50;5.00;;;;;;;12.81;100.00;97346.78;5043331;28;20282;-53
2023/10/09 02:48:47;;;;;;;11.33;4.53;;;;;;;12.79;100.00;97346.06;5043682;28;20218;-52
2023/10/09 02:51:22;;;;;;;12.13;5.00;;;;;;;12.79;100.00;97347.88;5044046;28;20218;-52
2023/10/09 02:53:49;;;;;;;12.90;4.20;;;;;;;12.75;100.00;97349.16;5044079;28;20195;-52
2023/10/09 02:56:23;;;;;;;8.87;4.10;;;;;;;12.73;100.00;97349.28;5043249;28;20200;-53
2023/10/09 02:58:50;;;;;;;9.30;4.27;;;;;;;12.70;100.00;97348.75;5043279;28;20207;-52
2023/10/09 03:01:16;;;;;;;10.07;4.17;;;;;;;12.65;100.00;97348.31;5043101;28;20539;-50
2023/10/09 03:03:46;;;;;;;10.90;4.13;;;;;;;12.63;100.00;97345.81;5043132;28;20234;-51
2023/10/09 03:06:13;;;;;;;7.00;3.93;;;;;;;12.66;100.00;97348.19;5042672;28;20216;-52
2023/10/09 03:08:41;;;;;;;8.00;3.60;;;;;;;12.61;100.00;97350.41;5043003;28;20262;-50
2023/10/09 03:11:13;;;;;;;10.87;4.63;;;;;;;12.57;100.00;97346.38;5042989;28;20227;-52
2023/10/09 03:13:44;;;;;;;11.13;4.30;;;;;;;12.61;100.00;97350.41;5042661;28;20192;-52
2023/10/09 03:16:14;;;;;;;12.77;4.30;;;;;;;12.57;100.00;97351.69;5042693;28;20214;-51
2023/10/09 03:18:41;;;;;;;12.13;4.23;;;;;;;12.58;100.00;97342.72;5042370;28;20231;-54
2023/10/09 03:21:08;;;;;;;8.43;4.03;;;;;;;12.58;100.00;97348.03;5042142;28;20204;-51
2023/10/09 03:23:35;;;;;;;11.07;4.20;;;;;;;12.57;100.00;97340.22;5041778;28;20923;-52
2023/10/09 03:26:01;;;;;;;13.37;4.00;;;;;;;12.57;100.00;97345.53;5041961;28;20640;-52
2023/10/09 03:28:27;;;;;;;10.97;4.20;;;;;;;12.51;100.00;97346.91;5042545;28;20548;-52
2023/10/09 03:30:59;;;;;;;10.57;4.00;;;;;;;12.54;100.00;97345.81;5042709;28;20211;-51
2023/10/09 03:33:26;;;;;;;10.70;4.50;;;;;;;12.52;100.00;97345.94;5041273;28;20218;-50
2023/10/09 03:35:53;;;;;;;12.40;5.17;;;;;;;12.50;100.00;97350.53;5042060;28;20214;-53
2023/10/09 03:38:19;;;;;;;8.73;4.40;;;;;;;12.52;100.00;97347.75;5042181;28;20248;-53
2023/10/09 03:40:47;;;;;;;15.57;4.67;;;;;;;12.52;100.00;97353.88;5041481;28;20204;-52
2023/10/09 03:43:14;;;;;;;9.27;4.00;;;;;;;12.50;100.00;97345.25;5042097;28;20199;-53
2023/10/09 03:45:49;;;;;;;13.77;4.87;;;;;;;12.44;100.00;97343.13;5042193;28;20551;-52
2023/10/09 03:48:21;;;;;;;10.37;4.70;;;;;;;12.45;100.00;97340.34;5042432;28;20198;-52
2023/10/09 03:50:48;;;;;;;12.77;4.90;;;;;;;12.45;100.00;97344.81;5041917;28;20207;-52
2023/10/09 03:53:15;;;;;;;11.97;4.30;;;;;;;12.43;100.00;97341.47;5041756;28;20880;-52
2023/10/09 03:55:42;;;;;;;9.40;4.80;;;;;;;12.37;100.00;97345.47;5041763;28;20650;-51
2023/10/09 03:58:11;;;;;;;11.03;4.97;;;;;;;12.37;100.00;97349.94;5041840;28;20208;-50
2023/10/09 04:00:44;;;;;;;12.83;4.50;;;;;;;12.37;100.00;97345.47;5041837;28;20710;-52
2023/10/09 04:03:11;;;;;;;14.20;4.17;;;;;;;12.41;100.00;97346.03;5041131;28;20655;-52
2023/10/09 04:05:41;;;;;;;13.00;5.00;;;;;;;12.41;100.00;97341.59;5041142;28;20199;-51
2023/10/09 04:08:16;;;;;;;13.10;4.17;;;;;;;12.40;100.00;97347.00;5043927;28;20224;-53
2023/10/09 04:10:51;;;;;;;12.23;4.17;;;;;;;12.44;100.00;97345.78;5046089;28;20211;-51
2023/10/09 04:13:22;;;;;;;10.40;4.47;;;;;;;12.43;100.00;97338.81;5043285;28;20205;-50
2023/10/09 04:15:49;;;;;;;10.40;3.73;;;;;;;12.42;100.00;97332.66;5041600;28;20207;-52
2023/10/09 04:18:27;;;;;;;8.47;4.30;;;;;;;12.41;100.00;97338.09;5041646;28;20645;-51
2023/10/09 04:23:59;;;;;;;12.77;4.33;;;;;;;12.33;100.00;97337.94;5037203;28;20281;-51
2023/10/09 04:26:25;;;;;;;14.00;4.33;;;;;;;12.34;100.00;97339.63;5041450;28;20534;-51
2023/10/09 04:28:52;;;;;;;11.07;4.80;;;;;;;12.34;100.00;97344.91;5041199;28;20214;-52
2023/10/09 04:31:21;;;;;;;12.33;4.77;;;;;;;12.27;100.00;97343.78;5041560;28;20256;-52
2023/10/09 04:33:55;;;;;;;11.00;4.77;;;;;;;12.22;100.00;97344.19;5041259;28;20211;-52
2023/10/09 04:36:23;;;;;;;12.23;4.23;;;;;;;12.26;100.00;97344.75;5041190;28;20228;-52
2023/10/09 04:39:15;;;;;;;12.23;4.47;;;;;;;12.24;100.00;97350.22;5040947;28;20243;-50
2023/10/09 04:41:52;;;;;;;8.67;3.83;;;;;;;12.27;100.00;97351.75;5041604;28;20213;-51
2023/10/09 04:44:18;;;;;;;13.63;4.20;;;;;;;12.23;100.00;97347.69;5041427;28;20271;-51
2023/10/09 04:47:17;;;;;;;11.83;4.13;;;;;;;12.16;100.00;97341.25;5041937;28;20215;-52
2023/10/09 04:49:49;;;;;;;10.83;4.37;;;;;;;12.24;100.00;97341.41;5040732;28;20230;-52
2023/10/09 04:52:51;;;;;;;13.10;4.37;;;;;;;12.16;100.00;97338.59;5042042;28;20222;-50
2023/10/09 04:55:16;;;;;;;11.00;4.67;;;;;;;12.19;100.00;97335.66;5045512;28;20261;-51
2023/10/09 04:58:00;;;;;;;10.60;4.13;;;;;;;12.17;100.00;97342.94;5045803;28;20286;-52
2023/10/09 05:00:46;;;;;;;12.43;4.40;;;;;;;12.14;100.00;97341.41;5044942;28;20678;-50
2023/10/09 05:03:25;;;;;;;10.77;4.30;;;;;;;12.10;100.00;97341.78;5045373;28;20207;-50
2023/10/09 05:05:58;;;;;;;17.73;4.73;;;;;;;12.07;100.00;97336.75;5045335;28;20199;-53
2023/10/09 05:08:29;;;;;;;8.73;4.17;;;;;;;12.06;100.00;97349.19;5044770;28;20616;-52
2023/10/09 05:11:05;;;;;;;13.57;5.00;;;;;;;12.05;100.00;97346.66;5045870;28;20203;-52
2023/10/09 05:13:43;;;;;;;10.90;4.23;;;;;;;12.08;100.00;97346.41;5047746;28;20286;-51
2023/10/09 05:16:18;;;;;;;14.00;4.63;;;;;;;12.07;100.00;97353.53;5046432;28;20206;-52
2023/10/09 05:18:55;;;;;;;8.10;4.10;;;;;;;12.06;100.00;97353.63;5046114;28;20202;-50
2023/10/09 05:21:36;;;;;;;8.63;3.90;;;;;;;12.06;100.00;97348.34;5046567;28;20319;-51
2023/10/09 05:24:18;;;;;;;9.30;4.23;;;;;;;12.12;100.00;97353.09;5044410;28;20246;-52
2023/10/09 05:26:51;;;;;;;14.60;4.93;;;;;;;12.09;100.00;97358.66;5044590;28;20195;-52
2023/10/09 05:29:34;;;;;;;13.03;4.30;;;;;;;12.10;100.00;97363.00;5045549;28;20230;-50
2023/10/09 05:32:05;;;;;;;12.13;4.67;;;;;;;12.13;100.00;97357.44;5045091;28;20195;-52
2023/10/09 05:34:33;;;;;;;13.23;4.33;;;;;;;12.07;100.00;97355.31;5045021;28;20200;-51
2023/10/09 05:37:16;;;;;;;7.50;4.77;;;;;;;12.12;100.00;97350.44;5044898;28;20542;-51
2023/10/09 05:39:57;;;;;;;11.50;4.50;;;;;;;12.12;100.00;97350.44;5044781;28;20279;-53
2023/10/09 05:42:29;;;;;;;12.40;4.70;;;;;;;12.16;100.00;97358.00;5045160;28;20226;-52
2023/10/09 05:46:02;;;;;;;10.90;4.50;;;;;;;12.19;100.00;97354.22;5044935;28;20277;-50
2023/10/09 05:47:57;;;;;;;10.93;4.87;;;;;;;12.11;100.00;97349.63;5044031;28;20215;-51
2023/10/09 05:50:37;;;;;;;9.13;4.57;;;;;;;12.17;100.00;97357.03;5044690;28;20204;-52
2023/10/09 05:53:10;;;;;;;9.03;4.73;;;;;;;12.19;100.00;97359.53;5044590;28;20235;-52
2023/10/09 06:01:05;;;;;;;12.20;4.60;;;;;;;12.24;100.00;97365.28;5044796;28;20289;-53
2023/10/09 06:04:33;;;;;;;6.33;3.90;;;;;;;12.35;100.00;97357.22;5042597;28;20858;-50
2023/10/09 06:07:12;;;;;;;10.73;4.37;;;;;;;12.37;100.00;97363.22;5045299;28;20196;-50
2023/10/09 06:09:52;;;;;;;13.67;4.47;;;;;;;12.41;100.00;97354.00;5046267;28;20215;-53
2023/10/09 06:12:49;;;;;;;9.87;4.17;;;;;;;12.45;100.00;97358.06;5043952;28;20523;-51
2023/10/09 06:15:50;;;;;;;13.60;4.23;;;;;;;12.55;100.00;97361.56;5044381;28;20268;-50
2023/10/09 06:18:32;;;;;;;11.27;3.90;;;;;;;12.62;100.00;97365.34;5045410;28;20203;-51
2023/10/09 06:24:09;;;;;;;11.43;4.20;;;;;;;12.67;100.00;97367.59;5043663;28;20228;-50
2023/10/09 06:26:36;;;;;;;14.53;4.93;;;;;;;12.72;100.00;97373.31;5053544;28;20206;-52
2023/10/09 06:29:16;;;;;;;7.73;4.23;;;;;;;12.84;100.00;97380.19;5051782;28;20195;-50
2023/10/09 06:31:57;;;;;;;14.07;4.50;;;;;;;12.92;100.00;97386.47;5050687;28;20210;-52
2023/10/09 06:34:32;;;;;;;6.27;4.30;;;;;;;13.02;100.00;97385.63;5044266;28;20238;-51
2023/10/09 06:37:03;;;;;;;7.97;4.70;;;;;;;13.07;100.00;97392.22;5044091;28;20188;-54
2023/10/09 06:42:30;;;;;;;10.17;5.10;;;;;;;13.28;100.00;97394.75;5044136;28;20207;-51
2023/10/09 06:45:04;;;;;;;11.63;4.83;;;;;;;13.35;100.00;97386.06;5042991;28;20641;-49
2023/10/09 06:47:36;;;;;;;13.77;5.10;;;;;;;13.44;100.00;97379.03;5043337;28;20210;-50
2023/10/09 06:50:24;;;;;;;14.23;5.00;;;;;;;13.54;100.00;97376.34;5043476;28;20287;-52
2023/10/09 06:55:49;;;;;;;12.48;5.07;;;;;;;13.71;100.00;97386.28;5043136;28;20215;-51
2023/10/09 06:58:16;;;;;;;14.70;5.00;;;;;;;13.80;100.00;97386.25;5045233;28;20199;-50
2023/10/09 07:01:19;;;;;;;11.10;5.30;;;;;;;13.90;100.00;97389.69;5045884;28;20227;-51
2023/10/09 07:03:51;;;;;;;13.07;5.68;;;;;;;13.99;100.00;97390.66;5045463;28;20231;-51
2023/10/09 07:06:24;;;;;;;12.65;5.15;;;;;;;14.11;100.00;97393.94;5044428;28;20192;-52
2023/10/09 07:09:15;;;;;;;14.70;5.60;;;;;;;14.21;100.00;97400.06;5043864;28;20200;-50
2023/10/09 07:15:01;;;;;;;9.80;5.22;;;;;;;14.45;100.00;97411.06;5042601;28;20211;-50
2023/10/09 07:17:26;;;;;;;13.47;5.77;;;;;;;14.56;100.00;97405.50;5042933;28;20211;-51
2023/10/09 07:20:08;;;;;;;10.68;4.85;;;;;;;14.65;100.00;97407.28;5042371;28;20222;-51
2023/10/09 07:22:39;;;;;;;10.40;5.20;;;;;;;14.73;100.00;97395.91;5042363;28;20246;-51
2023/10/09 07:25:14;;;;;;;11.75;4.97;;;;;;;14.83;100.00;97408.16;5042742;28;20207;-50
2023/10/09 07:27:45;;;;;;;13.73;4.90;;;;;;;14.93;100.00;97408.09;5043829;28;20204;-51
2023/10/09 07:33:05;;;;;;;17.25;5.45;;;;;;;15.14;100.00;97408.63;5041397;28;20559;-51
2023/10/09 07:35:46;;;;;;;13.93;5.25;;;;;;;15.20;100.00;97410.66;5042333;28;20208;-51
2023/10/09 07:38:19;;;;;;;11.80;5.13;;;;;;;15.31;100.00;97413.09;5042688;28;20298;-51
2023/10/09 07:40:55;;;;;;;10.43;5.13;;;;;;;15.40;100.00;97411.34;5042930;28;20679;-49
2023/10/09 07:43:26;;;;;;;13.63;4.75;;;;;;;15.53;100.00;97416.28;5043376;28;20211;-51
2023/10/09 07:46:29;;;;;;;11.85;5.13;;;;;;;15.61;100.00;97403.88;5042408;28;20200;-52
2023/10/09 07:48:48;;;;;;;16.55;6.25;;;;;;;15.72;100.00;97410.78;5042688;28;20211;-52
2023/10/09 07:51:16;;;;;;;12.82;5.10;;;;;;;15.81;100.00;97410.69;5041977;28;20206;-50
2023/10/09 07:53:44;;;;;;;14.40;5.20;;;;;;;15.92;100.00;97410.41;5042429;28;20208;-51
2023/10/09 07:56:13;;;;;;;15.98;5.13;;;;;;;15.99;100.00;97415.13;5042057;28;20208;-50
2023/10/09 07:58:46;;;;;;;15.25;4.78;;;;;;;16.10;100.00;97410.34;5042101;28;20269;-51
2023/10/09 08:01:22;;;;;;;9.43;5.18;;;;;;;16.19;100.00;97424.59;5042177;28;20269;-52
2023/10/09 08:04:01;;;;;;;13.55;5.70;;;;;;;16.29;100.00;97415.47;5042107;28;20206;-51
2023/10/09 08:06:39;;;;;;;15.25;5.60;;;;;;;16.41;100.00;97430.19;5041588;28;20198;-51
2023/10/09 08:09:28;;;;;;;20.67;5.70;;;;;;;16.50;100.00;97433.75;5041692;28;20206;-49
2023/10/09 08:14:48;;;;;;;11.95;5.13;;;;;;;16.73;100.00;97447.38;5031017;28;20311;-51
2023/10/09 08:17:15;;;;;;;11.65;5.70;;;;;;;16.81;100.00;97450.06;5043287;28;20290;-51
2023/10/09 08:19:54;;;;;;;13.13;5.55;;;;;;;16.85;100.00;97441.59;5041505;28;20309;-51
2023/10/09 08:22:50;;;;;;;17.30;5.30;;;;;;;16.93;100.00;97446.13;5041855;28;20290;-51
2023/10/09 08:28:38;;;;;;;14.57;5.53;;;;;;;17.15;100.00;97442.81;5041437;28;20558;-49
2023/10/09 08:31:02;;;;;;;16.23;5.50;;;;;;;17.34;100.00;97439.00;5042417;28;20206;-50
2023/10/09 08:33:40;;;;;;;16.35;5.82;;;;;;;17.54;100.00;97439.50;5042290;28;20349;-50
2023/10/09 08:36:08;;;;;;;17.35;5.30;;;;;;;17.76;100.00;97439.69;5041435;28;20202;-51
2023/10/09 08:38:34;;;;;;;13.63;5.40;;;;;;;17.96;100.00;97440.16;5042149;28;20202;-50
2023/10/09 08:41:15;;;;;;;11.68;5.97;;;;;;;18.15;100.00;97439.81;5042570;28;20234;-50
2023/10/09 08:43:47;;;;;;;10.93;5.47;;;;;;;18.34;100.00;97435.91;5041580;28;20571;-52
2023/10/09 08:46:18;;;;;;;12.25;5.85;;;;;;;18.50;100.00;97435.00;5042037;28;20214;-49
2023/10/09 08:48:45;;;;;;;15.20;6.00;;;;;;;18.69;100.00;97432.81;5041648;28;20615;-50
2023/10/09 08:51:14;;;;;;;17.63;5.85;;;;;;;18.87;100.00;97435.22;5041297;28;20271;-52
2023/10/09 08:53:42;;;;;;;13.27;5.43;;;;;;;19.02;100.00;97438.84;5041570;28;20278;-50
2023/10/09 08:56:14;;;;;;;15.65;5.22;;;;;;;19.22;100.00;97434.69;5041321;28;20203;-50
2023/10/09 08:58:41;;;;;;;12.80;4.95;;;;;;;19.32;100.00;97431.75;5041976;28;20227;-51
2023/10/09 09:01:08;;;;;;;13.82;4.93;;;;;;;19.50;100.00;97431.50;5042092;28;20314;-51
2023/10/09 09:03:43;;;;;;;14.88;5.35;;;;;;;19.62;100.00;97430.06;5042162;28;20199;-49
2023/10/09 09:06:10;;;;;;;14.75;5.97;;;;;;;19.69;100.00;97426.50;5041764;28;20214;-52
2023/10/09 09:08:38;;;;;;;18.90;5.97;;;;;;;19.79;98.48;97428.91;5041346;28;20207;-51
2023/10/09 09:11:12;;;;;;;14.95;5.38;;;;;;;19.86;98.21;97428.00;5041758;28;20203;-51
2023/10/09 09:13:41;;;;;;;16.77;5.45;;;;;;;19.91;97.81;97434.69;5047747;28;20425;-51
2023/10/09 09:16:16;;;;;;;17.40;6.28;;;;;;;19.94;98.39;97437.84;5055875;28;20223;-51
2023/10/09 09:19:00;;;;;;;13.23;5.85;;;;;;;20.05;100.00;97437.38;5057518;28;20272;-51
2023/10/09 09:21:27;;;;;;;14.10;6.05;;;;;;;20.27;98.36;97435.63;5055723;28;20207;-51
2023/10/09 09:23:57;;;;;;;14.32;5.75;;;;;;;20.42;92.14;97427.63;5053426;28;20258;-53
2023/10/09 09:26:44;;;;;;;16.95;5.70;;;;;;;20.75;88.59;97431.59;5056158;28;20196;-53
2023/10/09 09:29:11;;;;;;;14.77;5.45;;;;;;;21.09;89.06;97441.72;5055918;28;20196;-51
2023/10/09 09:31:38;;;;;;;11.88;4.88;;;;;;;21.33;86.19;97439.53;5043363;28;20222;-51
2023/10/09 09:34:12;;;;;;;13.43;4.82;;;;;;;21.60;85.55;97440.66;5041408;28;20266;-53
2023/10/09 09:36:53;;;;;;;17.35;5.97;;;;;;;21.78;85.09;97438.34;5041667;28;20286;-51
2023/10/09 09:39:27;;;;;;;16.65;4.93;;;;;;;21.73;81.17;97440.78;5043557;28;20203;-51
2023/10/09 09:41:57;;;;;;;16.10;4.53;;;;;;;21.92;82.46;97428.53;5045950;28;20211;-53
2023/10/09 09:44:26;;;;;;;11.90;5.10;;;;;;;21.92;80.21;97433.09;5045773;28;20218;-51
2023/10/09 09:46:55;;;;;;;13.57;4.30;;;;;;;22.10;81.70;97425.38;5045049;28;20697;-51
2023/10/09 09:49:21;;;;;;;15.20;4.60;;;;;;;22.14;79.11;97421.25;5044255;28;20203;-51
2023/10/09 09:51:48;;;;;;;17.35;4.55;;;;;;;22.26;79.25;97407.03;5045170;28;20222;-53
2023/10/09 09:54:16;;;;;;;14.45;4.70;;;;;;;22.30;78.26;97405.59;5045143;28;20229;-50
2023/10/09 09:56:50;;;;;;;13.43;3.95;;;;;;;22.55;79.98;97407.81;5044830;28;20204;-51
2023/10/09 09:59:21;;;;;;;12.25;4.47;;;;;;;22.73;79.95;97414.38;5044985;28;20604;-51
2023/10/09 10:01:56;;;;;;;11.85;3.95;;;;;;;22.79;79.41;97401.94;5044847;28;20265;-51
2023/10/09 10:04:25;;;;;;;15.05;4.70;;;;;;;22.78;77.85;97405.66;5045730;28;20206;-52
2023/10/09 10:06:55;;;;;;;13.00;4.78;;;;;;;22.96;77.91;97410.50;5044563;28;20208;-52
2023/10/09 10:09:39;;;;;;;10.90;4.13;;;;;;;22.99;80.62;97393.94;5044629;28;20306;-51
2023/10/09 10:12:10;;;;;;;17.27;4.47;;;;;;;23.09;79.03;97399.78;5042047;28;20825;-50
2023/10/09 10:14:53;;;;;;;14.55;4.32;;;;;;;22.83;75.16;97394.28;5044704;28;20199;-51
2023/10/09 10:17:21;;;;;;;12.13;4.50;;;;;;;22.94;76.03;97396.41;5046943;28;20210;-51
2023/10/09 10:22:47;;;;;;;8.70;4.47;;;;;;;22.96;76.11;97397.84;5053888;28;20261;-51
2023/10/09 10:25:35;;;;;;;10.50;4.22;;;;;;;22.88;74.18;97386.44;5055091;28;20217;-52
2023/10/09 10:28:28;;;;;;;16.10;4.28;;;;;;;22.95;74.72;97382.72;5051405;28;20275;-49
2023/10/09 10:30:55;;;;;;;15.85;4.28;;;;;;;23.06;73.06;97389.41;5055476;28;20199;-51
2023/10/09 10:33:22;;;;;;;10.52;4.38;;;;;;;22.98;70.68;97384.19;5059610;28;20203;-50
2023/10/09 10:35:52;;;;;;;14.23;4.28;;;;;;;23.12;70.49;97383.19;5060124;28;20195;-52
2023/10/09 10:38:36;;;;;;;11.10;4.45;;;;;;;23.37;68.90;97389.66;5060484;28;20207;-52
2023/10/09 10:41:16;;;;;;;11.55;4.45;;;;;;;23.50;69.65;97387.00;5058842;28;20208;-53
2023/10/09 10:43:54;;;;;;;17.40;4.22;;;;;;;23.55;68.99;97381.84;5048641;28;20613;-52
2023/10/09 10:46:30;;;;;;;11.23;4.43;;;;;;;23.64;68.29;97387.84;5043426;28;20211;-52
2023/10/09 10:48:59;;;;;;;10.10;3.40;;;;;;;23.99;69.81;97388.47;5043835;28;20211;-50
2023/10/09 10:51:34;;;;;;;11.63;4.43;;;;;;;24.21;67.68;97373.72;5043548;28;20203;-52
2023/10/09 10:54:26;;;;;;;14.40;4.63;;;;;;;24.81;67.35;97386.00;5042958;28;20298;-51
2023/10/09 10:56:51;;;;;;;18.35;4.97;;;;;;;24.82;63.81;97384.13;5043942;28;20214;-52
2023/10/09 10:59:24;;;;;;;13.25;4.20;;;;;;;24.85;66.33;97386.44;5042969;28;20203;-52
2023/10/09 11:01:53;;;;;;;14.55;3.97;;;;;;;25.08;67.06;97381.34;5042816;28;20207;-51
2023/10/09 11:04:38;;;;;;;12.25;3.90;;;;;;;25.05;65.46;97370.94;5042574;28;20224;-51
2023/10/09 11:07:09;;;;;;;13.82;4.30;;;;;;;24.98;66.52;97373.69;5043401;28;20289;-51
2023/10/09 11:09:58;;;;;;;13.23;4.32;;;;;;;24.83;67.08;97378.56;5043253;28;20199;-52
2023/10/09 11:12:24;;;;;;;14.02;4.35;;;;;;;24.56;66.05;97368.84;5042659;28;20262;-52
2023/10/09 11:15:07;;;;;;;8.05;4.13;;;;;;;24.41;69.80;97368.28;5052422;28;20206;-51
2023/10/09 11:17:35;;;;;;;14.75;4.22;;;;;;;24.32;77.02;97364.13;5065611;28;20205;-52
2023/10/09 11:20:22;;;;;;;15.68;4.57;;;;;;;24.12;76.49;97358.75;5051305;28;20271;-52
2023/10/09 11:23:14;;;;;;;12.68;4.50;;;;;;;24.00;73.27;97352.31;5044048;28;20231;-52
2023/10/09 11:25:37;;;;;;;16.13;4.72;;;;;;;23.83;72.17;97343.81;5044225;28;20203;-51
2023/10/09 11:28:27;;;;;;;12.82;4.20;;;;;;;23.77;73.41;97334.66;5045229;28;20295;-52
2023/10/09 11:30:55;;;;;;;14.93;4.68;;;;;;;23.60;72.92;97338.00;5042898;28;20202;-52
2023/10/09 11:33:22;;;;;;;11.80;4.43;;;;;;;23.56;71.90;97334.06;5043461;28;20281;-51
2023/10/09 11:35:56;;;;;;;11.55;4.20;;;;;;;23.56;74.57;97345.69;5042247;28;20200;-51
2023/10/09 11:38:24;;;;;;;20.98;4.90;;;;;;;23.45;74.11;97345.50;5043303;28;20193;-51
2023/10/09 11:41:05;;;;;;;14.23;4.50;;;;;;;23.40;75.39;97342.53;5041859;28;20230;-54
2023/10/09 11:43:52;;;;;;;19.67;4.82;;;;;;;23.31;72.82;97341.91;5043002;28;20287;-51
2023/10/09 11:46:47;;;;;;;19.20;5.18;;;;;;;23.22;72.01;97338.56;5042393;28;20223;-50
2023/10/09 11:49:26;;;;;;;14.95;4.88;;;;;;;23.26;74.17;97341.69;5042279;28;20215;-50
2023/10/09 11:52:35;;;;;;;17.63;5.18;;;;;;;23.20;75.81;97335.22;5042254;28;21476;-51
2023/10/09 11:54:57;;;;;;;13.98;4.55;;;;;;;23.18;73.61;97336.47;5042276;28;20207;-50
2023/10/09 11:57:30;;;;;;;15.25;4.40;;;;;;;23.12;72.65;97331.91;5043017;28;20199;-53
2023/10/09 11:59:57;;;;;;;15.27;5.07;;;;;;;23.17;73.30;97326.72;5041566;28;20298;-52
2023/10/09 12:02:25;;;;;;;17.30;4.78;;;;;;;23.20;74.87;97323.63;5041041;28;20249;-51
2023/10/09 12:04:54;;;;;;;11.23;4.68;;;;;;;23.22;77.58;97314.28;5041599;28;20216;-51
2023/10/09 12:07:20;;;;;;;18.73;4.97;;;;;;;23.23;75.46;97315.94;5041949;28;20597;-51
2023/10/09 12:09:47;;;;;;;11.60;4.43;;;;;;;23.39;74.67;97320.09;5041834;28;20298;-50
2023/10/09 12:12:14;;;;;;;15.65;4.57;;;;;;;23.47;72.25;97313.69;5041753;28;20620;-49
2023/10/09 12:14:40;;;;;;;15.95;4.75;;;;;;;23.59;74.12;97304.78;5041892;28;20202;-51
2023/10/09 12:17:08;;;;;;;16.30;4.75;;;;;;;23.73;74.73;97306.44;5041405;28;20207;-51
2023/10/09 12:19:37;;;;;;;11.05;4.80;;;;;;;23.81;71.51;97293.75;5041766;28;20218;-52
2023/10/09 12:22:10;;;;;;;13.00;4.28;;;;;;;23.89;71.46;97298.91;5041376;28;20268;-51